Time;durP1;ratioP1;P1;durP2;ratioP2;P2;SDS_P1;SDS_P2;PMS_P1;PMS_P2;Temp;Humidity;BMP_temperature;BMP_pressure;BME280_temperature;BME280_humidity;BME280_pressure;Samples;Min_cycle;Max_cycle;Signal;HPM_P1;HPM_P2
2022/09/14 00:02:23;;;;;;;9.83;6.97;;;;;;;;;;5072482;28;20448;-71
2022/09/14 00:04:50;;;;;;;8.70;7.93;;;;;;;;;;5072281;28;20991;-71
2022/09/14 00:07:18;;;;;;;11.20;8.23;;;;;;;;;;5072423;28;20515;-71
2022/09/14 00:09:45;;;;;;;7.43;6.73;;;;;;;;;;5072046;28;20829;-71
2022/09/14 00:12:12;;;;;;;8.17;7.37;;;;;;;;;;5072340;28;20456;-71
2022/09/14 00:14:39;;;;;;;9.30;7.80;;;;;;;;;;5072109;28;20476;-71
2022/09/14 00:17:06;;;;;;;9.90;8.30;;;;;;;;;;5072373;28;20517;-71
2022/09/14 00:19:35;;;;;;;8.30;7.50;;;;;;;;;;5072205;28;20956;-72
2022/09/14 00:22:02;;;;;;;10.87;8.20;;;;;;;;;;5071868;28;20457;-72
2022/09/14 00:24:30;;;;;;;7.97;7.17;;;;;;;;;;5071939;28;20475;-71
2022/09/14 00:26:58;;;;;;;10.30;7.60;;;;;;;;;;5072247;28;20479;-71
2022/09/14 00:29:25;;;;;;;8.30;7.50;;;;;;;;;;5072212;28;20454;-71
2022/09/14 00:31:52;;;;;;;10.03;7.57;;;;;;;;;;5072242;28;20451;-71
2022/09/14 00:34:20;;;;;;;8.10;7.30;;;;;;;;;;5071835;28;21011;-71
2022/09/14 00:36:50;;;;;;;6.77;6.17;;;;;;;;;;5072049;28;20928;-71
2022/09/14 00:39:17;;;;;;;11.17;7.97;;;;;;;;;;5072239;28;20839;-71
2022/09/14 00:41:46;;;;;;;9.23;7.20;;;;;;;;;;5072090;28;20802;-71
2022/09/14 00:44:32;;;;;;;8.73;7.60;;;;;;;;;;5071888;28;20494;-71
2022/09/14 00:47:01;;;;;;;8.53;7.60;;;;;;;;;;5071936;28;20991;-71
2022/09/14 00:49:30;;;;;;;8.17;7.33;;;;;;;;;;5072108;28;20444;-71
2022/09/14 00:52:02;;;;;;;8.83;7.50;;;;;;;;;;5072064;28;20452;-71
2022/09/14 00:54:29;;;;;;;9.63;8.73;;;;;;;;;;5071718;28;20475;-71
2022/09/14 00:56:58;;;;;;;8.60;7.70;;;;;;;;;;5072242;28;20454;-71
2022/09/14 00:59:27;;;;;;;9.63;7.60;;;;;;;;;;5071962;28;20451;-71
2022/09/14 01:01:54;;;;;;;8.07;7.27;;;;;;;;;;5071968;28;20460;-71
2022/09/14 01:04:22;;;;;;;11.23;8.00;;;;;;;;;;5071545;28;21012;-71
2022/09/14 01:06:56;;;;;;;8.10;7.23;;;;;;;;;;5071891;28;20498;-71
2022/09/14 01:09:27;;;;;;;9.27;6.73;;;;;;;;;;5071976;28;20789;-71
2022/09/14 01:12:05;;;;;;;7.00;6.30;;;;;;;;;;5072086;28;20447;-71
2022/09/14 01:14:37;;;;;;;6.77;6.17;;;;;;;;;;5071549;28;20828;-71
2022/09/14 01:17:07;;;;;;;9.97;6.27;;;;;;;;;;5071759;28;20447;-71
2022/09/14 01:19:44;;;;;;;8.80;6.00;;;;;;;;;;5071709;28;20454;-71
2022/09/14 01:22:15;;;;;;;11.63;6.30;;;;;;;;;;5072836;28;20450;-71
2022/09/14 01:24:46;;;;;;;11.17;6.90;;;;;;;;;;5075493;28;20470;-71
2022/09/14 01:27:31;;;;;;;7.67;6.43;;;;;;;;;;5075405;28;20486;-71
2022/09/14 01:30:05;;;;;;;12.97;7.87;;;;;;;;;;5075513;28;20451;-71
2022/09/14 01:32:34;;;;;;;9.47;7.00;;;;;;;;;;5075592;28;20446;-71
2022/09/14 01:35:04;;;;;;;7.67;6.43;;;;;;;;;;5075131;28;20843;-71
2022/09/14 01:37:34;;;;;;;7.90;7.20;;;;;;;;;;5075196;28;20542;-72
2022/09/14 01:40:04;;;;;;;6.60;6.10;;;;;;;;;;5075242;28;20451;-71
2022/09/14 01:42:32;;;;;;;12.40;6.60;;;;;;;;;;5075075;28;20502;-71
2022/09/14 01:45:02;;;;;;;8.00;6.63;;;;;;;;;;5074859;28;20463;-71
2022/09/14 01:47:32;;;;;;;7.53;6.77;;;;;;;;;;5074969;28;20540;-71
2022/09/14 01:50:04;;;;;;;9.37;6.43;;;;;;;;;;5075487;28;20992;-71
2022/09/14 01:52:34;;;;;;;6.30;5.70;;;;;;;;;;5074990;28;20519;-71
2022/09/14 01:55:04;;;;;;;10.30;5.90;;;;;;;;;;5074853;28;20783;-71
2022/09/14 01:57:33;;;;;;;11.50;10.30;;;;;;;;;;5074935;28;20455;-71
2022/09/14 02:00:03;;;;;;;8.73;7.50;;;;;;;;;;5075069;28;20451;-71
2022/09/14 02:02:33;;;;;;;8.33;7.07;;;;;;;;;;5075176;28;20994;-71
2022/09/14 02:05:03;;;;;;;9.43;7.00;;;;;;;;;;5074774;28;21000;-71
2022/09/14 02:07:31;;;;;;;6.97;6.30;;;;;;;;;;5074873;28;20837;-71
2022/09/14 02:09:58;;;;;;;7.40;6.10;;;;;;;;;;5075009;28;20444;-71
2022/09/14 02:12:25;;;;;;;7.40;6.60;;;;;;;;;;5074643;28;20452;-71
2022/09/14 02:14:53;;;;;;;8.50;6.43;;;;;;;;;;5074448;28;20483;-71
2022/09/14 02:17:20;;;;;;;7.27;6.57;;;;;;;;;;5074729;28;20448;-71
2022/09/14 02:19:50;;;;;;;6.77;6.17;;;;;;;;;;5074709;28;20801;-71
2022/09/14 02:22:17;;;;;;;6.73;6.10;;;;;;;;;;5074352;28;20771;-71
2022/09/14 02:24:45;;;;;;;6.30;5.70;;;;;;;;;;5074418;28;20460;-71
2022/09/14 02:27:12;;;;;;;8.50;5.70;;;;;;;;;;5074378;28;20479;-71
2022/09/14 02:29:39;;;;;;;7.37;6.03;;;;;;;;;;5074383;28;20459;-71
2022/09/14 02:32:13;;;;;;;9.37;6.57;;;;;;;;;;5074416;28;20455;-71
2022/09/14 02:34:47;;;;;;;11.33;6.40;;;;;;;;;;5074082;28;20511;-71
2022/09/14 02:37:18;;;;;;;8.50;7.20;;;;;;;;;;5074404;28;20443;-71
2022/09/14 02:39:51;;;;;;;7.57;6.80;;;;;;;;;;5074408;28;20533;-71
2022/09/14 02:42:22;;;;;;;7.60;6.80;;;;;;;;;;5074082;28;20949;-71
2022/09/14 02:44:54;;;;;;;8.07;7.13;;;;;;;;;;5073887;28;20479;-71
2022/09/14 02:47:24;;;;;;;8.33;7.33;;;;;;;;;;5073960;28;20856;-71
2022/09/14 02:49:57;;;;;;;12.50;8.40;;;;;;;;;;5074336;28;20487;-71
2022/09/14 02:52:28;;;;;;;11.97;8.70;;;;;;;;;;5074340;28;20432;-71
2022/09/14 02:54:58;;;;;;;14.53;9.60;;;;;;;;;;5073753;28;20471;-71
2022/09/14 02:57:26;;;;;;;7.07;6.40;;;;;;;;;;5073853;28;20543;-71
2022/09/14 02:59:53;;;;;;;10.57;7.50;;;;;;;;;;5074021;28;20811;-71
2022/09/14 03:02:21;;;;;;;7.40;6.70;;;;;;;;;;5073758;28;20459;-71
2022/09/14 03:04:48;;;;;;;6.53;5.87;;;;;;;;;;5073585;28;20863;-71
2022/09/14 03:07:15;;;;;;;7.60;6.43;;;;;;;;;;5073448;28;20498;-71
2022/09/14 03:09:43;;;;;;;7.67;6.97;;;;;;;;;;5073533;28;20452;-71
2022/09/14 03:12:10;;;;;;;9.13;7.00;;;;;;;;;;5073746;28;20964;-71
2022/09/14 03:14:37;;;;;;;8.30;6.27;;;;;;;;;;5073014;28;20476;-71
2022/09/14 03:17:05;;;;;;;8.73;7.80;;;;;;;;;;5073573;28;20974;-71
2022/09/14 03:19:32;;;;;;;10.03;7.87;;;;;;;;;;5073322;28;20928;-71
2022/09/14 03:21:59;;;;;;;6.90;6.23;;;;;;;;;;5073179;28;20448;-71
2022/09/14 03:24:26;;;;;;;7.40;6.07;;;;;;;;;;5072971;28;20968;-71
2022/09/14 03:26:54;;;;;;;8.63;6.60;;;;;;;;;;5073292;28;20486;-71
2022/09/14 03:29:21;;;;;;;10.47;6.97;;;;;;;;;;5073021;28;20466;-71
2022/09/14 03:31:49;;;;;;;7.70;6.20;;;;;;;;;;5073157;28;20460;-71
2022/09/14 03:34:16;;;;;;;6.57;5.53;;;;;;;;;;5072923;28;20482;-71
2022/09/14 03:36:43;;;;;;;6.90;5.93;;;;;;;;;;5072904;28;20823;-71
2022/09/14 03:39:11;;;;;;;9.00;6.40;;;;;;;;;;5073077;28;20459;-71
2022/09/14 03:41:38;;;;;;;6.73;5.67;;;;;;;;;;5072753;28;20539;-71
2022/09/14 03:44:07;;;;;;;7.13;6.10;;;;;;;;;;5072170;28;20475;-71
2022/09/14 03:46:34;;;;;;;8.40;6.83;;;;;;;;;;5072808;28;20467;-71
2022/09/14 03:49:01;;;;;;;8.90;6.00;;;;;;;;;;5072874;28;20483;-71
2022/09/14 03:51:28;;;;;;;7.80;6.67;;;;;;;;;;5072952;28;20875;-71
2022/09/14 03:53:55;;;;;;;8.33;6.47;;;;;;;;;;5072612;28;20869;-71
2022/09/14 03:56:23;;;;;;;7.53;6.83;;;;;;;;;;5072691;28;20460;-72
2022/09/14 03:58:51;;;;;;;13.00;8.17;;;;;;;;;;5072793;28;20443;-71
2022/09/14 04:01:21;;;;;;;9.63;7.87;;;;;;;;;;5072512;28;20448;-71
2022/09/14 04:03:48;;;;;;;8.23;7.43;;;;;;;;;;5072197;28;20471;-71
2022/09/14 04:06:15;;;;;;;14.37;7.80;;;;;;;;;;5072608;28;20467;-71
2022/09/14 04:08:43;;;;;;;7.60;6.83;;;;;;;;;;5072379;28;20487;-71
2022/09/14 04:11:11;;;;;;;13.83;8.00;;;;;;;;;;5072516;28;20482;-71
2022/09/14 04:13:38;;;;;;;8.70;7.83;;;;;;;;;;5072254;28;20882;-71
2022/09/14 04:16:05;;;;;;;7.30;6.60;;;;;;;;;;5072567;28;20460;-71
2022/09/14 04:18:34;;;;;;;8.43;7.37;;;;;;;;;;5072356;28;20452;-71
2022/09/14 04:21:02;;;;;;;9.43;7.73;;;;;;;;;;5072740;28;20452;-71
2022/09/14 04:23:29;;;;;;;12.83;7.53;;;;;;;;;;5071314;28;20454;-71
2022/09/14 04:25:56;;;;;;;9.37;7.30;;;;;;;;;;5072323;28;20458;-71
2022/09/14 04:28:24;;;;;;;8.93;7.63;;;;;;;;;;5072034;28;20515;-71
2022/09/14 04:30:57;;;;;;;8.33;7.47;;;;;;;;;;5072275;28;20554;-71
2022/09/14 04:33:25;;;;;;;10.10;7.20;;;;;;;;;;5072013;28;20448;-71
2022/09/14 04:36:01;;;;;;;7.77;5.97;;;;;;;;;;5072163;28;20543;-71
2022/09/14 04:38:29;;;;;;;8.07;6.70;;;;;;;;;;5072409;28;20452;-71
2022/09/14 04:40:56;;;;;;;14.43;7.10;;;;;;;;;;5072078;28;20467;-71
2022/09/14 04:43:24;;;;;;;9.37;8.33;;;;;;;;;;5071914;28;20460;-71
2022/09/14 04:45:51;;;;;;;13.13;6.93;;;;;;;;;;5071880;28;20964;-71
2022/09/14 04:48:19;;;;;;;11.70;7.60;;;;;;;;;;5072096;28;20863;-71
2022/09/14 04:50:46;;;;;;;9.50;7.57;;;;;;;;;;5071979;28;20452;-71
2022/09/14 04:53:14;;;;;;;10.87;8.40;;;;;;;;;;5072075;28;20811;-71
2022/09/14 04:55:42;;;;;;;7.70;7.00;;;;;;;;;;5072352;28;20471;-71
2022/09/14 04:58:09;;;;;;;7.47;6.43;;;;;;;;;;5076259;28;20444;-71
2022/09/14 05:00:36;;;;;;;7.87;7.07;;;;;;;;;;5076128;28;20454;-71
2022/09/14 05:03:04;;;;;;;7.47;6.77;;;;;;;;;;5075983;28;20452;-71
2022/09/14 05:05:31;;;;;;;8.03;6.80;;;;;;;;;;5075749;28;20467;-71
2022/09/14 05:07:58;;;;;;;9.57;6.80;;;;;;;;;;5076174;28;20487;-71
2022/09/14 05:10:27;;;;;;;10.57;6.90;;;;;;;;;;5075912;28;20474;-71
2022/09/14 05:12:54;;;;;;;9.03;6.10;;;;;;;;;;5076055;28;20459;-71
2022/09/14 05:15:21;;;;;;;10.97;6.77;;;;;;;;;;5075631;28;20479;-71
2022/09/14 05:17:48;;;;;;;11.40;5.90;;;;;;;;;;5075705;28;20451;-71
2022/09/14 05:20:16;;;;;;;7.47;5.47;;;;;;;;;;5075854;28;20975;-71
2022/09/14 05:22:43;;;;;;;6.30;5.70;;;;;;;;;;5075232;28;20487;-71
2022/09/14 05:25:10;;;;;;;8.73;6.00;;;;;;;;;;5084079;28;20494;-71
2022/09/14 05:27:39;;;;;;;6.57;6.00;;;;;;;;;;5094947;28;20478;-71
2022/09/14 05:30:06;;;;;;;7.63;6.03;;;;;;;;;;5095724;28;20454;-71
2022/09/14 05:32:33;;;;;;;7.07;5.23;;;;;;;;;;5095582;28;20442;-71
2022/09/14 05:35:01;;;;;;;5.80;5.27;;;;;;;;;;5095477;28;20470;-71
2022/09/14 05:37:28;;;;;;;5.43;4.90;;;;;;;;;;5075046;28;20483;-71
2022/09/14 05:39:55;;;;;;;5.87;5.30;;;;;;;;;;5085767;28;20541;-71
2022/09/14 05:42:22;;;;;;;4.63;4.20;;;;;;;;;;5093862;28;20466;-71
2022/09/14 05:44:51;;;;;;;9.33;3.73;;;;;;;;;;5093564;28;20477;-71
2022/09/14 05:47:18;;;;;;;4.67;4.27;;;;;;;;;;5093739;28;20492;-71
2022/09/14 05:49:45;;;;;;;5.50;3.73;;;;;;;;;;5093736;28;20464;-71
2022/09/14 05:52:12;;;;;;;4.53;4.13;;;;;;;;;;5093736;28;20927;-71
2022/09/14 05:54:39;;;;;;;5.40;4.37;;;;;;;;;;5093438;28;20478;-74
2022/09/14 05:57:07;;;;;;;4.37;3.97;;;;;;;;;;5093646;28;20459;-72
2022/09/14 05:59:34;;;;;;;4.33;3.93;;;;;;;;;;5093667;28;20519;-71
2022/09/14 06:02:02;;;;;;;4.03;3.63;;;;;;;;;;5093720;28;20461;-71
2022/09/14 06:04:29;;;;;;;4.03;3.23;;;;;;;;;;5093333;28;20519;-71
2022/09/14 06:06:57;;;;;;;3.90;3.60;;;;;;;;;;5093263;28;20967;-71
2022/09/14 06:09:24;;;;;;;5.90;4.40;;;;;;;;;;5093212;28;20482;-71
2022/09/14 06:11:51;;;;;;;3.90;3.60;;;;;;;;;;5079075;28;20501;-71
2022/09/14 06:14:20;;;;;;;4.90;4.40;;;;;;;;;;5073135;28;20840;-71
2022/09/14 06:16:47;;;;;;;5.93;4.10;;;;;;;;;;5073300;28;20517;-70
2022/09/14 06:19:15;;;;;;;7.47;4.90;;;;;;;;;;5072713;28;20547;-72
2022/09/14 06:21:43;;;;;;;4.57;4.13;;;;;;;;;;5072671;28;20459;-72
2022/09/14 06:24:11;;;;;;;8.73;4.80;;;;;;;;;;5072052;28;20486;-71
2022/09/14 06:26:38;;;;;;;5.90;4.20;;;;;;;;;;5073051;28;20456;-70
2022/09/14 06:29:05;;;;;;;5.03;4.50;;;;;;;;;;5073061;28;20487;-70
2022/09/14 06:31:32;;;;;;;5.67;5.17;;;;;;;;;;5072997;28;20458;-71
2022/09/14 06:34:00;;;;;;;5.37;4.07;;;;;;;;;;5072755;28;20976;-72
2022/09/14 06:36:29;;;;;;;6.73;4.27;;;;;;;;;;5072869;28;20840;-72
2022/09/14 06:38:56;;;;;;;13.70;4.50;;;;;;;;;;5072944;28;20448;-73
2022/09/14 06:41:27;;;;;;;6.40;4.27;;;;;;;;;;5072955;28;20460;-71
2022/09/14 06:43:56;;;;;;;6.87;4.60;;;;;;;;;;5072598;28;20471;-73
2022/09/14 06:46:24;;;;;;;4.83;4.43;;;;;;;;;;5072635;28;20462;-71
2022/09/14 06:48:52;;;;;;;8.40;4.43;;;;;;;;;;5072843;28;20496;-71
2022/09/14 06:51:20;;;;;;;4.67;4.27;;;;;;;;;;5072373;28;20447;-71
2022/09/14 06:53:49;;;;;;;5.80;4.67;;;;;;;;;;5072597;28;20479;-71
2022/09/14 06:56:17;;;;;;;5.37;4.93;;;;;;;;;;5072411;28;20889;-71
2022/09/14 06:58:44;;;;;;;5.73;4.93;;;;;;;;;;5072264;28;20448;-71
2022/09/14 07:01:15;;;;;;;5.50;5.00;;;;;;;;;;5072746;28;20448;-71
2022/09/14 07:03:43;;;;;;;5.77;4.30;;;;;;;;;;5072029;28;20855;-71
2022/09/14 07:06:12;;;;;;;9.00;5.23;;;;;;;;;;5072148;28;20458;-72
2022/09/14 07:08:40;;;;;;;6.20;3.90;;;;;;;;;;5072045;28;20494;-73
2022/09/14 07:11:09;;;;;;;3.90;3.60;;;;;;;;;;5072170;28;20470;-71
2022/09/14 07:13:37;;;;;;;5.57;4.50;;;;;;;;;;5071641;28;20463;-71
2022/09/14 07:16:04;;;;;;;6.03;4.83;;;;;;;;;;5072497;28;20464;-71
2022/09/14 07:18:31;;;;;;;6.20;4.10;;;;;;;;;;5071872;28;20447;-70
2022/09/14 07:21:02;;;;;;;6.83;4.13;;;;;;;;;;5071225;28;20451;-70
2022/09/14 07:23:29;;;;;;;4.20;3.77;;;;;;;;;;5070975;28;20447;-71
2022/09/14 07:26:03;;;;;;;4.10;3.70;;;;;;;;;;5072097;28;20451;-73
2022/09/14 07:28:32;;;;;;;4.60;3.43;;;;;;;;;;5071920;28;20647;-71
2022/09/14 07:30:59;;;;;;;4.57;3.43;;;;;;;;;;5072014;28;20462;-71
2022/09/14 07:33:27;;;;;;;4.43;3.40;;;;;;;;;;5071809;28;20454;-70
2022/09/14 07:35:54;;;;;;;3.30;3.00;;;;;;;;;;5071683;28;20478;-70
2022/09/14 07:38:21;;;;;;;5.93;3.80;;;;;;;;;;5071584;28;20546;-73
2022/09/14 07:40:48;;;;;;;5.33;3.40;;;;;;;;;;5071771;28;20462;-71
2022/09/14 07:43:15;;;;;;;3.93;3.43;;;;;;;;;;5071494;28;20471;-71
2022/09/14 07:45:44;;;;;;;5.67;3.40;;;;;;;;;;5071272;28;20468;-71
2022/09/14 07:48:11;;;;;;;5.53;3.40;;;;;;;;;;5071403;28;20452;-71
2022/09/14 07:50:38;;;;;;;8.33;3.23;;;;;;;;;;5071355;28;20925;-71
2022/09/14 07:53:05;;;;;;;4.90;3.50;;;;;;;;;;5071554;28;20466;-71
2022/09/14 07:55:33;;;;;;;3.70;2.90;;;;;;;;;;5071017;28;20472;-70
2022/09/14 07:58:00;;;;;;;4.13;3.30;;;;;;;;;;5071048;28;20451;-70
2022/09/14 08:00:27;;;;;;;4.20;3.10;;;;;;;;;;5071085;28;20463;-71
2022/09/14 08:02:56;;;;;;;2.80;2.43;;;;;;;;;;5073009;28;20462;-71
2022/09/14 08:05:24;;;;;;;3.27;2.73;;;;;;;;;;5090891;28;20487;-71
2022/09/14 08:07:54;;;;;;;4.93;3.17;;;;;;;;;;5091646;28;20462;-71
2022/09/14 08:10:21;;;;;;;5.83;4.77;;;;;;;;;;5091328;28;20522;-71
2022/09/14 08:12:50;;;;;;;5.40;4.37;;;;;;;;;;5091293;28;20817;-71
2022/09/14 08:15:18;;;;;;;5.90;3.13;;;;;;;;;;5091075;28;20474;-71
2022/09/14 08:17:45;;;;;;;4.03;3.63;;;;;;;;;;5091467;28;20451;-73
2022/09/14 08:20:15;;;;;;;11.60;8.63;;;;;;;;;;5091096;28;20446;-71
2022/09/14 08:22:42;;;;;;;7.77;4.60;;;;;;;;;;5090808;28;20464;-71
2022/09/14 08:25:10;;;;;;;6.53;4.40;;;;;;;;;;5091082;28;20753;-71
2022/09/14 08:27:37;;;;;;;3.40;2.60;;;;;;;;;;5090997;28;20454;-73
2022/09/14 08:30:05;;;;;;;10.63;3.00;;;;;;;;;;5091260;28;20937;-71
2022/09/14 08:32:32;;;;;;;3.90;2.60;;;;;;;;;;5090735;28;20954;-71
2022/09/14 08:34:59;;;;;;;7.27;4.33;;;;;;;;;;5090684;28;20490;-71
2022/09/14 08:37:28;;;;;;;3.10;2.80;;;;;;;;;;5091044;28;20872;-71
2022/09/14 08:39:55;;;;;;;4.10;2.73;;;;;;;;;;5091035;28;20453;-71
2022/09/14 08:42:24;;;;;;;3.60;2.87;;;;;;;;;;5090861;28;20463;-71
2022/09/14 08:44:53;;;;;;;3.73;2.70;;;;;;;;;;5090882;28;20532;-71
2022/09/14 08:47:24;;;;;;;4.23;2.40;;;;;;;;;;5090952;28;20450;-71
2022/09/14 08:49:52;;;;;;;7.43;2.83;;;;;;;;;;5091117;28;20581;-71
2022/09/14 08:52:23;;;;;;;4.90;2.60;;;;;;;;;;5090876;28;20874;-71
2022/09/14 08:54:54;;;;;;;3.97;2.33;;;;;;;;;;5090665;28;20565;-71
2022/09/14 08:57:25;;;;;;;5.57;2.80;;;;;;;;;;5090513;28;20466;-71
2022/09/14 08:59:55;;;;;;;6.13;2.33;;;;;;;;;;5091214;28;20451;-71
2022/09/14 09:02:30;;;;;;;11.17;3.33;;;;;;;;;;5090864;28;20458;-71
2022/09/14 09:04:59;;;;;;;6.03;2.83;;;;;;;;;;5090540;28;20478;-71
2022/09/14 09:07:31;;;;;;;5.73;4.93;;;;;;;;;;5090707;28;20450;-71
2022/09/14 09:10:00;;;;;;;5.93;2.43;;;;;;;;;;5090907;28;20486;-71
2022/09/14 09:12:34;;;;;;;5.80;2.83;;;;;;;;;;5090553;28;20458;-71
2022/09/14 09:15:02;;;;;;;3.67;2.33;;;;;;;;;;5090781;28;20481;-71
2022/09/14 09:17:32;;;;;;;7.20;2.40;;;;;;;;;;5090768;28;20538;-71
2022/09/14 09:20:04;;;;;;;5.47;2.23;;;;;;;;;;5090949;28;20542;-71
2022/09/14 09:22:33;;;;;;;2.83;2.53;;;;;;;;;;5090183;28;20868;-71
2022/09/14 09:25:04;;;;;;;3.83;2.00;;;;;;;;;;5090418;28;20502;-71
2022/09/14 09:27:31;;;;;;;5.30;2.57;;;;;;;;;;5090600;28;20959;-73
2022/09/14 09:29:58;;;;;;;3.57;2.60;;;;;;;;;;5090931;28;20513;-71
2022/09/14 09:32:26;;;;;;;4.77;2.80;;;;;;;;;;5090742;28;20451;-71
2022/09/14 09:34:53;;;;;;;5.27;2.50;;;;;;;;;;5090234;28;20471;-71
2022/09/14 09:37:21;;;;;;;4.07;2.37;;;;;;;;;;5090739;28;20828;-71
2022/09/14 09:39:49;;;;;;;6.90;3.33;;;;;;;;;;5090367;28;20447;-73
2022/09/14 09:42:21;;;;;;;4.97;2.87;;;;;;;;;;5071457;28;20911;-71
2022/09/14 09:44:54;;;;;;;3.30;2.47;;;;;;;;;;5073645;28;20836;-71
2022/09/14 09:47:26;;;;;;;4.00;2.50;;;;;;;;;;5082666;28;20500;-71
2022/09/14 09:49:57;;;;;;;11.10;2.30;;;;;;;;;;5095087;28;20497;-71
2022/09/14 09:52:25;;;;;;;3.10;1.80;;;;;;;;;;5095643;28;20947;-71
2022/09/14 09:54:54;;;;;;;4.00;2.27;;;;;;;;;;5095072;28;20474;-71
2022/09/14 09:57:23;;;;;;;3.60;2.53;;;;;;;;;;5095414;28;20456;-71
2022/09/14 09:59:51;;;;;;;3.60;2.10;;;;;;;;;;5095380;28;20984;-73
2022/09/14 10:02:22;;;;;;;3.07;1.90;;;;;;;;;;5095295;28;20447;-71
2022/09/14 10:04:57;;;;;;;5.07;2.30;;;;;;;;;;5094817;28;20471;-71
2022/09/14 10:07:25;;;;;;;4.40;1.77;;;;;;;;;;5095043;28;20454;-71
2022/09/14 10:09:58;;;;;;;3.70;1.97;;;;;;;;;;5095099;28;20987;-71
2022/09/14 10:12:26;;;;;;;2.60;2.00;;;;;;;;;;5095377;28;20477;-71
2022/09/14 10:15:04;;;;;;;3.10;2.03;;;;;;;;;;5095087;28;20470;-72
2022/09/14 10:17:31;;;;;;;3.93;2.00;;;;;;;;;;5094982;28;20457;-71
2022/09/14 10:19:58;;;;;;;5.07;2.40;;;;;;;;;;5095026;28;20462;-71
2022/09/14 10:22:27;;;;;;;3.20;2.10;;;;;;;;;;5094967;28;20446;-71
2022/09/14 10:24:57;;;;;;;3.20;2.00;;;;;;;;;;5094780;28;20537;-72
2022/09/14 10:27:47;;;;;;;9.50;2.10;;;;;;;;;;5094890;28;20932;-73
2022/09/14 10:30:17;;;;;;;8.23;1.60;;;;;;;;;;5090623;28;20576;-72
2022/09/14 10:32:45;;;;;;;4.17;1.90;;;;;;;;;;5094901;28;20925;-72
2022/09/14 10:35:14;;;;;;;3.73;1.90;;;;;;;;;;5094539;28;20466;-72
2022/09/14 10:37:50;;;;;;;7.87;2.53;;;;;;;;;;5094558;28;20830;-72
2022/09/14 10:40:18;;;;;;;2.90;2.03;;;;;;;;;;5094631;28;20472;-72
2022/09/14 10:42:52;;;;;;;6.73;2.20;;;;;;;;;;5094805;28;20551;-72
2022/09/14 10:45:24;;;;;;;2.73;2.53;;;;;;;;;;5094198;28;20471;-72
2022/09/14 10:48:02;;;;;;;4.67;3.03;;;;;;;;;;5094474;28;20457;-72
2022/09/14 10:50:34;;;;;;;3.77;2.00;;;;;;;;;;5094254;28;20639;-72
2022/09/14 10:53:06;;;;;;;4.13;2.07;;;;;;;;;;5094333;28;20590;-72
2022/09/14 10:55:38;;;;;;;8.73;3.60;;;;;;;;;;5094056;28;20570;-72
2022/09/14 10:58:19;;;;;;;4.30;2.07;;;;;;;;;;5094183;28;20466;-72
2022/09/14 11:00:53;;;;;;;6.83;2.40;;;;;;;;;;5094123;28;20549;-72
2022/09/14 11:03:26;;;;;;;13.60;2.27;;;;;;;;;;5094099;28;20446;-72
2022/09/14 11:05:58;;;;;;;5.10;2.10;;;;;;;;;;5094319;28;20838;-72
2022/09/14 11:08:26;;;;;;;9.20;2.70;;;;;;;;;;5094005;28;20457;-72
2022/09/14 11:11:03;;;;;;;4.90;3.00;;;;;;;;;;5093819;28;20482;-72
2022/09/14 11:13:39;;;;;;;2.47;2.00;;;;;;;;;;5093543;28;20469;-72
2022/09/14 11:16:12;;;;;;;5.20;2.20;;;;;;;;;;5093955;28;20445;-72
2022/09/14 11:18:45;;;;;;;8.70;3.13;;;;;;;;;;5094046;28;20945;-71
2022/09/14 11:21:17;;;;;;;3.33;1.93;;;;;;;;;;5093719;28;20447;-72
2022/09/14 11:23:49;;;;;;;8.97;2.10;;;;;;;;;;5092942;28;20550;-72
2022/09/14 11:26:19;;;;;;;2.40;1.87;;;;;;;;;;5093738;28;20446;-72
2022/09/14 11:28:49;;;;;;;7.50;2.10;;;;;;;;;;5093510;28;20459;-72
2022/09/14 11:31:21;;;;;;;3.00;1.73;;;;;;;;;;5093606;28;21016;-72
2022/09/14 11:33:49;;;;;;;7.53;1.80;;;;;;;;;;5093205;28;20470;-72
2022/09/14 11:36:19;;;;;;;5.43;2.10;;;;;;;;;;5093566;28;21007;-72
2022/09/14 11:38:48;;;;;;;5.30;2.20;;;;;;;;;;5093497;28;20450;-72
2022/09/14 11:41:20;;;;;;;5.23;1.93;;;;;;;;;;5093311;28;20466;-72
2022/09/14 11:43:49;;;;;;;4.93;3.10;;;;;;;;;;5093229;28;20742;-72
2022/09/14 11:46:20;;;;;;;4.20;2.50;;;;;;;;;;5093232;28;20454;-72
2022/09/14 11:48:49;;;;;;;6.93;1.80;;;;;;;;;;5093383;28;20923;-72
2022/09/14 11:51:19;;;;;;;6.90;1.97;;;;;;;;;;5093118;28;20995;-72
2022/09/14 11:53:46;;;;;;;2.93;1.70;;;;;;;;;;5093013;28;20481;-72
2022/09/14 11:56:22;;;;;;;3.07;2.10;;;;;;;;;;5093264;28;20468;-72
2022/09/14 11:58:49;;;;;;;5.40;2.13;;;;;;;;;;5093192;28;20565;-72
2022/09/14 12:01:29;;;;;;;5.53;2.20;;;;;;;;;;5093046;28;20837;-72
2022/09/14 12:04:21;;;;;;;3.40;2.10;;;;;;;;;;5092690;28;20482;-72
2022/09/14 12:06:56;;;;;;;3.03;2.00;;;;;;;;;;5092741;28;20936;-72
2022/09/14 12:09:39;;;;;;;10.00;2.97;;;;;;;;;;5092798;28;20454;-72
2022/09/14 12:12:27;;;;;;;2.40;2.00;;;;;;;;;;5092807;28;20462;-72
2022/09/14 12:15:00;;;;;;;3.67;1.90;;;;;;;;;;5092725;28;20466;-72
2022/09/14 12:17:28;;;;;;;4.97;2.00;;;;;;;;;;5092919;28;20454;-72
2022/09/14 12:19:57;;;;;;;3.80;2.20;;;;;;;;;;5092834;28;20451;-72
2022/09/14 12:22:30;;;;;;;6.17;2.10;;;;;;;;;;5092601;28;20458;-72
2022/09/14 12:25:06;;;;;;;5.53;1.87;;;;;;;;;;5092530;28;20470;-72
2022/09/14 12:27:35;;;;;;;6.03;2.13;;;;;;;;;;5092851;28;20840;-72
2022/09/14 12:30:24;;;;;;;5.43;2.13;;;;;;;;;;5092422;28;20565;-72
2022/09/14 12:32:51;;;;;;;3.83;1.87;;;;;;;;;;5092505;28;20457;-72
2022/09/14 12:35:45;;;;;;;5.20;2.13;;;;;;;;;;5092161;28;20501;-72
2022/09/14 12:38:27;;;;;;;5.67;2.20;;;;;;;;;;5092546;28;20939;-72
2022/09/14 12:40:55;;;;;;;4.37;2.40;;;;;;;;;;5090102;28;20970;-72
2022/09/14 12:43:46;;;;;;;4.50;2.07;;;;;;;;;;5092434;28;20736;-72
2022/09/14 12:46:29;;;;;;;4.50;2.20;;;;;;;;;;5092811;28;20525;-72
2022/09/14 12:49:01;;;;;;;5.93;2.70;;;;;;;;;;5089993;28;20462;-72
2022/09/14 12:51:33;;;;;;;4.43;2.50;;;;;;;;;;5092380;28;20536;-72
2022/09/14 12:54:03;;;;;;;5.50;3.00;;;;;;;;;;5092153;28;20474;-72
2022/09/14 12:56:32;;;;;;;7.47;3.00;;;;;;;;;;5092282;28;20462;-72
2022/09/14 12:59:03;;;;;;;9.17;2.60;;;;;;;;;;5092320;28;20811;-72
2022/09/14 13:01:35;;;;;;;3.70;2.03;;;;;;;;;;5092172;28;20447;-72
2022/09/14 13:04:04;;;;;;;3.90;2.50;;;;;;;;;;5092096;28;20972;-72
2022/09/14 13:06:35;;;;;;;4.10;2.70;;;;;;;;;;5092262;28;20457;-72
2022/09/14 13:09:03;;;;;;;7.47;2.60;;;;;;;;;;5092273;28;20455;-72
2022/09/14 13:11:32;;;;;;;10.70;2.73;;;;;;;;;;5092060;28;20993;-72
2022/09/14 13:14:00;;;;;;;4.67;2.50;;;;;;;;;;5092096;28;20968;-72
2022/09/14 13:16:38;;;;;;;3.73;2.43;;;;;;;;;;5092150;28;20446;-72
2022/09/14 13:19:17;;;;;;;5.10;1.90;;;;;;;;;;5095094;28;20450;-71
2022/09/14 13:21:47;;;;;;;2.73;1.83;;;;;;;;;;5096150;28;20480;-71
2022/09/14 13:24:20;;;;;;;6.60;2.90;;;;;;;;;;5095651;28;20478;-72
2022/09/14 13:26:48;;;;;;;11.13;2.80;;;;;;;;;;5096102;28;20455;-72
2022/09/14 13:29:16;;;;;;;5.20;2.70;;;;;;;;;;5096096;28;20451;-72
2022/09/14 13:31:45;;;;;;;4.80;2.47;;;;;;;;;;5095722;28;20494;-72
2022/09/14 13:34:18;;;;;;;7.30;2.80;;;;;;;;;;5095846;28;20921;-72
2022/09/14 13:36:45;;;;;;;5.30;2.47;;;;;;;;;;5095683;28;20950;-72
2022/09/14 13:39:14;;;;;;;6.20;2.57;;;;;;;;;;5095847;28;20461;-72
2022/09/14 13:41:42;;;;;;;4.00;2.10;;;;;;;;;;5095688;28;20459;-72
2022/09/14 13:44:11;;;;;;;3.93;2.33;;;;;;;;;;5095770;28;20470;-72
2022/09/14 13:46:38;;;;;;;6.10;2.77;;;;;;;;;;5095535;28;20454;-71
2022/09/14 13:49:06;;;;;;;2.37;2.17;;;;;;;;;;5095439;28;20540;-72
2022/09/14 13:51:35;;;;;;;3.60;2.20;;;;;;;;;;5095431;28;20497;-72
2022/09/14 13:54:16;;;;;;;5.00;2.57;;;;;;;;;;5095193;28;21005;-72
2022/09/14 13:56:44;;;;;;;9.10;2.60;;;;;;;;;;5095634;28;20835;-72
2022/09/14 13:59:15;;;;;;;4.13;2.47;;;;;;;;;;5095930;28;20529;-72
2022/09/14 14:01:44;;;;;;;6.73;2.40;;;;;;;;;;5095960;28;20799;-72
2022/09/14 14:04:23;;;;;;;7.00;2.90;;;;;;;;;;5095540;28;20506;-73
2022/09/14 14:07:01;;;;;;;3.07;2.67;;;;;;;;;;5095774;28;20792;-73
2022/09/14 14:09:38;;;;;;;7.00;2.80;;;;;;;;;;5095635;28;20519;-72
2022/09/14 14:12:05;;;;;;;4.80;2.70;;;;;;;;;;5095555;28;20493;-72
2022/09/14 14:14:32;;;;;;;7.93;3.10;;;;;;;;;;5095226;28;20486;-72
2022/09/14 14:17:26;;;;;;;6.43;2.50;;;;;;;;;;5095638;28;20822;-72
2022/09/14 14:19:54;;;;;;;4.83;2.60;;;;;;;;;;5059688;28;20465;-72
2022/09/14 14:22:25;;;;;;;7.63;2.83;;;;;;;;;;5094843;28;20446;-72
2022/09/14 14:24:52;;;;;;;5.90;2.63;;;;;;;;;;5095243;28;20469;-72
2022/09/14 14:27:26;;;;;;;14.07;3.70;;;;;;;;;;5095406;28;20820;-72
2022/09/14 14:29:53;;;;;;;4.33;3.27;;;;;;;;;;5094863;28;20964;-73
2022/09/14 14:32:20;;;;;;;4.67;2.80;;;;;;;;;;5095215;28;20490;-72
2022/09/14 14:34:47;;;;;;;6.63;2.90;;;;;;;;;;5094863;28;20475;-72
2022/09/14 14:37:14;;;;;;;7.17;5.20;;;;;;;;;;5095170;28;20455;-72
2022/09/14 14:39:44;;;;;;;2.70;2.10;;;;;;;;;;5095107;28;20454;-72
2022/09/14 14:42:11;;;;;;;3.60;2.60;;;;;;;;;;5095063;28;20876;-73
2022/09/14 14:44:38;;;;;;;4.10;2.60;;;;;;;;;;5094698;28;20471;-72
2022/09/14 14:47:06;;;;;;;7.13;2.73;;;;;;;;;;5095110;28;20463;-72
2022/09/14 14:49:33;;;;;;;5.70;2.60;;;;;;;;;;5094935;28;20450;-73
2022/09/14 14:52:00;;;;;;;3.80;2.40;;;;;;;;;;5095051;28;20996;-73
2022/09/14 14:54:27;;;;;;;5.70;2.50;;;;;;;;;;5094443;28;20561;-72
2022/09/14 14:56:56;;;;;;;7.83;4.17;;;;;;;;;;5094903;28;20542;-72